< < Back
Terminal Aerodrome Forecast


Current Version              Previous Versions:   1  2  3  4  5  6  7  8  9  

Terminal Aerodrome Forecast

846
FTUS42 KFFC 041741
TAFAHN
TAF
KAHN 041741Z 0418/0518 33009G16KT P6SM SCT060
     FM050200 31007KT P6SM BKN060
      TEMPO 0502/0504 33012G20KT 6SM SHRA BKN050
     FM050400 30010G18KT P6SM BKN050
     FM051200 31010G20KT P6SM SCT070
     FM051700 32018G27KT P6SM VCSH BKN050=

Latest METAR

407
SAUS70 KWBC 050100 RRA
MTRAHN
METAR KAHN 050051Z AUTO 25003KT 10SM BKN100 17/07 A2969 RMK AO2 SLP050
T01720072


USA.gov is the U.S. government's official web portal to all federal, state and local government web resources and services.